sensor_id;sensor_type;location;lat;lon;timestamp;P1;durP1;ratioP1;P2;durP2;ratioP2
24357;SDS011;13668;52.154;5.580;2022-09-12T00:01:04;19.20;;;17.40;;
24357;SDS011;13668;52.154;5.580;2022-09-12T00:03:30;19.88;;;17.88;;
24357;SDS011;13668;52.154;5.580;2022-09-12T00:05:56;19.83;;;17.80;;
24357;SDS011;13668;52.154;5.580;2022-09-12T00:08:22;21.20;;;17.60;;
24357;SDS011;13668;52.154;5.580;2022-09-12T00:10:48;19.60;;;17.65;;
24357;SDS011;13668;52.154;5.580;2022-09-12T00:13:14;19.50;;;17.70;;
24357;SDS011;13668;52.154;5.580;2022-09-12T00:15:41;19.83;;;17.92;;
24357;SDS011;13668;52.154;5.580;2022-09-12T00:18:08;20.95;;;18.75;;
24357;SDS011;13668;52.154;5.580;2022-09-12T00:20:34;22.40;;;19.65;;
24357;SDS011;13668;52.154;5.580;2022-09-12T00:23:00;21.98;;;18.30;;
24357;SDS011;13668;52.154;5.580;2022-09-12T00:25:26;21.15;;;19.00;;
24357;SDS011;13668;52.154;5.580;2022-09-12T00:27:54;21.67;;;19.40;;
24357;SDS011;13668;52.154;5.580;2022-09-12T00:30:20;21.05;;;18.85;;
24357;SDS011;13668;52.154;5.580;2022-09-12T00:32:46;19.63;;;17.77;;
24357;SDS011;13668;52.154;5.580;2022-09-12T00:35:14;22.10;;;19.73;;
24357;SDS011;13668;52.154;5.580;2022-09-12T00:37:40;19.23;;;17.33;;
24357;SDS011;13668;52.154;5.580;2022-09-12T00:40:06;19.23;;;17.42;;
24357;SDS011;13668;52.154;5.580;2022-09-12T00:42:32;21.10;;;19.08;;
24357;SDS011;13668;52.154;5.580;2022-09-12T00:44:58;19.58;;;17.67;;
24357;SDS011;13668;52.154;5.580;2022-09-12T00:47:26;19.65;;;17.75;;
24357;SDS011;13668;52.154;5.580;2022-09-12T00:52:28;19.70;;;17.67;;
24357;SDS011;13668;52.154;5.580;2022-09-12T00:55:07;18.52;;;16.73;;
24357;SDS011;13668;52.154;5.580;2022-09-12T00:57:35;19.25;;;17.30;;
24357;SDS011;13668;52.154;5.580;2022-09-12T01:00:12;19.80;;;17.80;;
24357;SDS011;13668;52.154;5.580;2022-09-12T01:02:39;19.27;;;17.38;;
24357;SDS011;13668;52.154;5.580;2022-09-12T01:05:06;18.45;;;16.65;;
24357;SDS011;13668;52.154;5.580;2022-09-12T01:07:34;19.58;;;17.55;;
24357;SDS011;13668;52.154;5.580;2022-09-12T01:10:01;19.55;;;17.60;;
24357;SDS011;13668;52.154;5.580;2022-09-12T01:12:27;19.63;;;17.25;;
24357;SDS011;13668;52.154;5.580;2022-09-12T01:14:53;19.42;;;17.40;;
24357;SDS011;13668;52.154;5.580;2022-09-12T01:17:19;19.42;;;17.48;;
24357;SDS011;13668;52.154;5.580;2022-09-12T01:19:49;17.95;;;16.08;;
24357;SDS011;13668;52.154;5.580;2022-09-12T01:33:05;19.38;;;16.65;;
24357;SDS011;13668;52.154;5.580;2022-09-12T01:35:57;18.48;;;16.60;;
24357;SDS011;13668;52.154;5.580;2022-09-12T01:43:30;18.98;;;17.02;;
24357;SDS011;13668;52.154;5.580;2022-09-12T01:46:00;18.13;;;16.27;;
24357;SDS011;13668;52.154;5.580;2022-09-12T01:48:54;18.55;;;16.33;;
24357;SDS011;13668;52.154;5.580;2022-09-12T01:53:47;17.83;;;16.02;;
24357;SDS011;13668;52.154;5.580;2022-09-12T01:56:18;18.83;;;16.52;;
24357;SDS011;13668;52.154;5.580;2022-09-12T01:58:49;20.40;;;15.82;;
24357;SDS011;13668;52.154;5.580;2022-09-12T02:01:23;18.70;;;16.90;;
24357;SDS011;13668;52.154;5.580;2022-09-12T02:03:52;18.50;;;16.70;;
24357;SDS011;13668;52.154;5.580;2022-09-12T02:06:22;16.73;;;15.13;;
24357;SDS011;13668;52.154;5.580;2022-09-12T02:08:52;18.50;;;16.70;;
24357;SDS011;13668;52.154;5.580;2022-09-12T02:11:19;21.48;;;16.58;;
24357;SDS011;13668;52.154;5.580;2022-09-12T02:13:52;17.90;;;16.10;;
24357;SDS011;13668;52.154;5.580;2022-09-12T02:18:49;18.52;;;16.35;;
24357;SDS011;13668;52.154;5.580;2022-09-12T02:21:17;18.05;;;15.10;;
24357;SDS011;13668;52.154;5.580;2022-09-12T02:23:44;16.45;;;14.70;;
24357;SDS011;13668;52.154;5.580;2022-09-12T02:26:47;15.55;;;13.95;;
24357;SDS011;13668;52.154;5.580;2022-09-12T02:29:05;16.50;;;14.80;;
24357;SDS011;13668;52.154;5.580;2022-09-12T02:37:11;17.70;;;15.85;;
24357;SDS011;13668;52.154;5.580;2022-09-12T02:39:09;19.70;;;16.35;;
24357;SDS011;13668;52.154;5.580;2022-09-12T02:41:35;16.67;;;14.70;;
24357;SDS011;13668;52.154;5.580;2022-09-12T02:44:01;16.80;;;15.10;;
24357;SDS011;13668;52.154;5.580;2022-09-12T02:46:32;17.20;;;15.40;;
24357;SDS011;13668;52.154;5.580;2022-09-12T02:49:01;16.75;;;15.00;;
24357;SDS011;13668;52.154;5.580;2022-09-12T02:51:27;17.67;;;15.85;;
24357;SDS011;13668;52.154;5.580;2022-09-12T02:53:53;18.13;;;16.10;;
24357;SDS011;13668;52.154;5.580;2022-09-12T02:56:22;17.38;;;14.95;;
24357;SDS011;13668;52.154;5.580;2022-09-12T02:58:49;17.00;;;15.20;;
24357;SDS011;13668;52.154;5.580;2022-09-12T03:01:32;17.27;;;15.35;;
24357;SDS011;13668;52.154;5.580;2022-09-12T03:04:07;18.17;;;15.48;;
24357;SDS011;13668;52.154;5.580;2022-09-12T03:09:26;20.33;;;17.60;;
24357;SDS011;13668;52.154;5.580;2022-09-12T03:12:07;20.05;;;16.55;;
24357;SDS011;13668;52.154;5.580;2022-09-12T03:17:18;19.25;;;16.35;;
24357;SDS011;13668;52.154;5.580;2022-09-12T03:19:51;19.60;;;17.42;;
24357;SDS011;13668;52.154;5.580;2022-09-12T03:27:37;21.02;;;17.42;;
24357;SDS011;13668;52.154;5.580;2022-09-12T03:30:05;21.45;;;16.60;;
24357;SDS011;13668;52.154;5.580;2022-09-12T03:32:43;21.48;;;17.30;;
24357;SDS011;13668;52.154;5.580;2022-09-12T03:35:09;20.33;;;18.00;;
24357;SDS011;13668;52.154;5.580;2022-09-12T03:37:36;20.60;;;17.30;;
24357;SDS011;13668;52.154;5.580;2022-09-12T03:40:05;19.63;;;17.23;;
24357;SDS011;13668;52.154;5.580;2022-09-12T03:42:32;23.80;;;17.90;;
24357;SDS011;13668;52.154;5.580;2022-09-12T03:44:58;21.30;;;17.48;;
24357;SDS011;13668;52.154;5.580;2022-09-12T03:47:24;19.40;;;17.38;;
24357;SDS011;13668;52.154;5.580;2022-09-12T03:49:50;21.95;;;17.52;;
24357;SDS011;13668;52.154;5.580;2022-09-12T03:52:16;19.55;;;16.20;;
24357;SDS011;13668;52.154;5.580;2022-09-12T03:54:42;24.20;;;18.17;;
24357;SDS011;13668;52.154;5.580;2022-09-12T03:57:09;22.48;;;17.88;;
24357;SDS011;13668;52.154;5.580;2022-09-12T03:59:35;20.02;;;17.10;;
24357;SDS011;13668;52.154;5.580;2022-09-12T04:02:01;19.00;;;16.40;;
24357;SDS011;13668;52.154;5.580;2022-09-12T04:04:28;20.92;;;17.73;;
24357;SDS011;13668;52.154;5.580;2022-09-12T04:06:54;21.38;;;17.52;;
24357;SDS011;13668;52.154;5.580;2022-09-12T04:09:20;19.13;;;17.13;;
24357;SDS011;13668;52.154;5.580;2022-09-12T04:11:46;23.73;;;19.10;;
24357;SDS011;13668;52.154;5.580;2022-09-12T04:14:12;22.80;;;17.77;;
24357;SDS011;13668;52.154;5.580;2022-09-12T04:16:38;22.20;;;19.33;;
24357;SDS011;13668;52.154;5.580;2022-09-12T04:19:04;24.52;;;19.60;;
24357;SDS011;13668;52.154;5.580;2022-09-12T04:21:30;25.58;;;18.67;;
24357;SDS011;13668;52.154;5.580;2022-09-12T04:23:56;24.35;;;19.05;;
24357;SDS011;13668;52.154;5.580;2022-09-12T04:26:22;25.63;;;19.98;;
24357;SDS011;13668;52.154;5.580;2022-09-12T04:28:51;23.73;;;18.73;;
24357;SDS011;13668;52.154;5.580;2022-09-12T04:31:17;27.00;;;18.85;;
24357;SDS011;13668;52.154;5.580;2022-09-12T04:33:46;22.77;;;19.50;;
24357;SDS011;13668;52.154;5.580;2022-09-12T04:36:14;26.85;;;19.60;;
24357;SDS011;13668;52.154;5.580;2022-09-12T04:38:40;25.63;;;19.17;;
24357;SDS011;13668;52.154;5.580;2022-09-12T04:41:14;29.17;;;20.80;;
24357;SDS011;13668;52.154;5.580;2022-09-12T04:43:40;23.67;;;19.60;;
24357;SDS011;13668;52.154;5.580;2022-09-12T04:46:06;25.75;;;20.73;;
24357;SDS011;13668;52.154;5.580;2022-09-12T04:48:33;25.25;;;20.35;;
24357;SDS011;13668;52.154;5.580;2022-09-12T04:51:20;24.55;;;19.55;;
24357;SDS011;13668;52.154;5.580;2022-09-12T04:53:51;27.83;;;20.02;;
24357;SDS011;13668;52.154;5.580;2022-09-12T04:56:19;24.60;;;19.83;;
24357;SDS011;13668;52.154;5.580;2022-09-12T04:58:45;27.02;;;20.95;;
24357;SDS011;13668;52.154;5.580;2022-09-12T05:01:14;28.00;;;21.38;;
24357;SDS011;13668;52.154;5.580;2022-09-12T05:03:41;27.63;;;20.50;;
24357;SDS011;13668;52.154;5.580;2022-09-12T05:06:10;25.98;;;20.27;;
24357;SDS011;13668;52.154;5.580;2022-09-12T05:08:39;28.63;;;20.70;;
24357;SDS011;13668;52.154;5.580;2022-09-12T05:11:09;28.77;;;22.33;;
24357;SDS011;13668;52.154;5.580;2022-09-12T05:13:36;28.05;;;20.77;;
24357;SDS011;13668;52.154;5.580;2022-09-12T05:16:03;29.05;;;22.13;;
24357;SDS011;13668;52.154;5.580;2022-09-12T05:18:33;31.30;;;23.42;;
24357;SDS011;13668;52.154;5.580;2022-09-12T05:20:59;29.73;;;22.00;;
24357;SDS011;13668;52.154;5.580;2022-09-12T05:23:26;30.40;;;23.52;;
24357;SDS011;13668;52.154;5.580;2022-09-12T05:25:53;33.20;;;23.85;;
24357;SDS011;13668;52.154;5.580;2022-09-12T05:28:20;27.13;;;22.50;;
24357;SDS011;13668;52.154;5.580;2022-09-12T05:30:46;37.33;;;23.80;;
24357;SDS011;13668;52.154;5.580;2022-09-12T05:33:13;32.63;;;23.38;;
24357;SDS011;13668;52.154;5.580;2022-09-12T05:35:39;31.65;;;23.75;;
24357;SDS011;13668;52.154;5.580;2022-09-12T05:38:08;37.90;;;25.40;;
24357;SDS011;13668;52.154;5.580;2022-09-12T05:40:34;33.38;;;23.80;;
24357;SDS011;13668;52.154;5.580;2022-09-12T05:43:00;33.42;;;24.30;;
24357;SDS011;13668;52.154;5.580;2022-09-12T05:45:26;36.08;;;26.02;;
24357;SDS011;13668;52.154;5.580;2022-09-12T05:47:52;41.90;;;27.88;;
24357;SDS011;13668;52.154;5.580;2022-09-12T05:50:18;40.53;;;28.17;;
24357;SDS011;13668;52.154;5.580;2022-09-12T05:52:45;40.55;;;28.58;;
24357;SDS011;13668;52.154;5.580;2022-09-12T05:55:10;43.95;;;29.00;;
24357;SDS011;13668;52.154;5.580;2022-09-12T05:57:36;41.60;;;29.25;;
24357;SDS011;13668;52.154;5.580;2022-09-12T06:00:03;43.38;;;29.88;;
24357;SDS011;13668;52.154;5.580;2022-09-12T06:02:30;44.50;;;30.40;;
24357;SDS011;13668;52.154;5.580;2022-09-12T06:04:56;48.42;;;32.15;;
24357;SDS011;13668;52.154;5.580;2022-09-12T06:07:21;50.75;;;32.40;;
24357;SDS011;13668;52.154;5.580;2022-09-12T06:09:47;50.28;;;32.83;;
24357;SDS011;13668;52.154;5.580;2022-09-12T06:12:13;52.38;;;33.83;;
24357;SDS011;13668;52.154;5.580;2022-09-12T06:14:39;51.30;;;33.63;;
24357;SDS011;13668;52.154;5.580;2022-09-12T06:17:05;50.78;;;34.10;;
24357;SDS011;13668;52.154;5.580;2022-09-12T06:19:31;59.65;;;36.40;;
24357;SDS011;13668;52.154;5.580;2022-09-12T06:21:57;60.60;;;36.70;;
24357;SDS011;13668;52.154;5.580;2022-09-12T06:24:23;55.30;;;36.17;;
24357;SDS011;13668;52.154;5.580;2022-09-12T06:26:49;58.85;;;36.20;;
24357;SDS011;13668;52.154;5.580;2022-09-12T06:29:18;57.28;;;36.83;;
24357;SDS011;13668;52.154;5.580;2022-09-12T06:31:45;55.00;;;36.20;;
24357;SDS011;13668;52.154;5.580;2022-09-12T06:34:11;62.20;;;38.17;;
24357;SDS011;13668;52.154;5.580;2022-09-12T06:36:42;60.58;;;38.30;;
24357;SDS011;13668;52.154;5.580;2022-09-12T06:39:18;59.08;;;36.90;;
24357;SDS011;13668;52.154;5.580;2022-09-12T06:41:45;62.78;;;37.13;;
24357;SDS011;13668;52.154;5.580;2022-09-12T06:44:13;68.43;;;38.55;;
24357;SDS011;13668;52.154;5.580;2022-09-12T06:46:39;63.08;;;36.28;;
24357;SDS011;13668;52.154;5.580;2022-09-12T06:49:06;63.00;;;37.28;;
24357;SDS011;13668;52.154;5.580;2022-09-12T06:51:32;65.68;;;39.58;;
24357;SDS011;13668;52.154;5.580;2022-09-12T06:54:00;62.95;;;38.97;;
24357;SDS011;13668;52.154;5.580;2022-09-12T06:56:26;66.43;;;39.47;;
24357;SDS011;13668;52.154;5.580;2022-09-12T06:58:54;69.75;;;40.30;;
24357;SDS011;13668;52.154;5.580;2022-09-12T07:01:24;66.03;;;38.70;;
24357;SDS011;13668;52.154;5.580;2022-09-12T07:03:52;69.93;;;41.72;;
24357;SDS011;13668;52.154;5.580;2022-09-12T07:06:19;73.45;;;44.90;;
24357;SDS011;13668;52.154;5.580;2022-09-12T07:08:46;66.88;;;40.13;;
24357;SDS011;13668;52.154;5.580;2022-09-12T07:11:13;66.88;;;39.03;;
24357;SDS011;13668;52.154;5.580;2022-09-12T07:13:40;72.95;;;42.97;;
24357;SDS011;13668;52.154;5.580;2022-09-12T07:16:06;62.80;;;40.08;;
24357;SDS011;13668;52.154;5.580;2022-09-12T07:18:33;66.57;;;40.53;;
24357;SDS011;13668;52.154;5.580;2022-09-12T07:20:59;61.45;;;38.13;;
24357;SDS011;13668;52.154;5.580;2022-09-12T07:23:26;53.63;;;34.83;;
24357;SDS011;13668;52.154;5.580;2022-09-12T07:25:52;50.70;;;31.85;;
24357;SDS011;13668;52.154;5.580;2022-09-12T07:28:21;43.95;;;31.23;;
24357;SDS011;13668;52.154;5.580;2022-09-12T07:30:47;41.30;;;27.50;;
24357;SDS011;13668;52.154;5.580;2022-09-12T07:33:13;44.88;;;30.27;;
24357;SDS011;13668;52.154;5.580;2022-09-12T07:35:39;46.10;;;30.58;;
24357;SDS011;13668;52.154;5.580;2022-09-12T07:38:05;49.20;;;31.38;;
24357;SDS011;13668;52.154;5.580;2022-09-12T07:40:31;44.20;;;31.50;;
24357;SDS011;13668;52.154;5.580;2022-09-12T07:42:57;47.17;;;30.92;;
24357;SDS011;13668;52.154;5.580;2022-09-12T07:45:23;45.75;;;31.95;;
24357;SDS011;13668;52.154;5.580;2022-09-12T07:47:52;48.00;;;32.60;;
24357;SDS011;13668;52.154;5.580;2022-09-12T07:50:18;45.95;;;33.22;;
24357;SDS011;13668;52.154;5.580;2022-09-12T07:52:44;45.63;;;33.20;;
24357;SDS011;13668;52.154;5.580;2022-09-12T07:55:10;39.13;;;28.60;;
24357;SDS011;13668;52.154;5.580;2022-09-12T07:57:36;45.05;;;30.58;;
24357;SDS011;13668;52.154;5.580;2022-09-12T08:00:02;44.67;;;31.38;;
24357;SDS011;13668;52.154;5.580;2022-09-12T08:02:29;42.88;;;30.77;;
24357;SDS011;13668;52.154;5.580;2022-09-12T08:04:55;42.03;;;30.83;;
24357;SDS011;13668;52.154;5.580;2022-09-12T08:07:21;41.97;;;28.25;;
24357;SDS011;13668;52.154;5.580;2022-09-12T08:09:47;42.42;;;29.75;;
24357;SDS011;13668;52.154;5.580;2022-09-12T08:12:14;44.58;;;31.13;;
24357;SDS011;13668;52.154;5.580;2022-09-12T08:14:40;42.50;;;28.77;;
24357;SDS011;13668;52.154;5.580;2022-09-12T08:17:06;41.45;;;30.17;;
24357;SDS011;13668;52.154;5.580;2022-09-12T08:19:32;44.20;;;29.33;;
24357;SDS011;13668;52.154;5.580;2022-09-12T08:21:58;38.63;;;28.17;;
24357;SDS011;13668;52.154;5.580;2022-09-12T08:24:24;38.90;;;29.10;;
24357;SDS011;13668;52.154;5.580;2022-09-12T08:26:50;42.53;;;29.63;;
24357;SDS011;13668;52.154;5.580;2022-09-12T08:29:16;46.60;;;30.67;;
24357;SDS011;13668;52.154;5.580;2022-09-12T08:31:42;41.97;;;30.05;;
24357;SDS011;13668;52.154;5.580;2022-09-12T08:34:10;40.63;;;29.85;;
24357;SDS011;13668;52.154;5.580;2022-09-12T08:36:36;40.42;;;29.25;;
24357;SDS011;13668;52.154;5.580;2022-09-12T08:39:03;40.47;;;28.98;;
24357;SDS011;13668;52.154;5.580;2022-09-12T08:44:26;41.42;;;29.35;;
24357;SDS011;13668;52.154;5.580;2022-09-12T08:49:31;40.38;;;28.92;;
24357;SDS011;13668;52.154;5.580;2022-09-12T08:51:59;38.10;;;28.08;;
24357;SDS011;13668;52.154;5.580;2022-09-12T08:54:27;36.55;;;26.60;;
24357;SDS011;13668;52.154;5.580;2022-09-12T08:56:56;35.40;;;25.88;;
24357;SDS011;13668;52.154;5.580;2022-09-12T08:59:25;38.28;;;27.83;;
24357;SDS011;13668;52.154;5.580;2022-09-12T09:01:51;35.17;;;26.13;;
24357;SDS011;13668;52.154;5.580;2022-09-12T09:11:56;30.80;;;24.33;;
24357;SDS011;13668;52.154;5.580;2022-09-12T09:17:30;29.80;;;24.63;;
24357;SDS011;13668;52.154;5.580;2022-09-12T09:22:29;28.13;;;22.38;;
24357;SDS011;13668;52.154;5.580;2022-09-12T09:24:58;25.65;;;21.35;;
24357;SDS011;13668;52.154;5.580;2022-09-12T09:27:46;28.73;;;21.20;;
24357;SDS011;13668;52.154;5.580;2022-09-12T09:30:14;23.65;;;20.30;;
24357;SDS011;13668;52.154;5.580;2022-09-12T09:32:41;21.25;;;17.35;;
24357;SDS011;13668;52.154;5.580;2022-09-12T09:37:58;22.30;;;17.88;;
24357;SDS011;13668;52.154;5.580;2022-09-12T09:40:26;19.73;;;15.45;;
24357;SDS011;13668;52.154;5.580;2022-09-12T09:45:23;21.65;;;17.90;;
24357;SDS011;13668;52.154;5.580;2022-09-12T09:47:56;24.30;;;19.23;;
24357;SDS011;13668;52.154;5.580;2022-09-12T09:50:23;20.20;;;17.05;;
24357;SDS011;13668;52.154;5.580;2022-09-12T09:52:50;18.48;;;16.35;;
24357;SDS011;13668;52.154;5.580;2022-09-12T09:55:20;18.77;;;16.63;;
24357;SDS011;13668;52.154;5.580;2022-09-12T09:57:47;20.23;;;16.63;;
24357;SDS011;13668;52.154;5.580;2022-09-12T10:00:19;17.35;;;15.55;;
24357;SDS011;13668;52.154;5.580;2022-09-12T10:05:27;20.00;;;16.70;;
24357;SDS011;13668;52.154;5.580;2022-09-12T10:07:53;16.85;;;15.05;;
24357;SDS011;13668;52.154;5.580;2022-09-12T10:10:19;17.88;;;15.90;;
24357;SDS011;13668;52.154;5.580;2022-09-12T10:12:49;19.90;;;17.20;;
24357;SDS011;13668;52.154;5.580;2022-09-12T10:15:16;19.42;;;17.33;;
24357;SDS011;13668;52.154;5.580;2022-09-12T10:17:43;18.05;;;16.05;;
24357;SDS011;13668;52.154;5.580;2022-09-12T10:22:55;19.17;;;17.15;;
24357;SDS011;13668;52.154;5.580;2022-09-12T10:25:21;22.70;;;17.88;;
24357;SDS011;13668;52.154;5.580;2022-09-12T10:27:53;23.48;;;19.08;;
24357;SDS011;13668;52.154;5.580;2022-09-12T10:30:19;20.63;;;17.75;;
24357;SDS011;13668;52.154;5.580;2022-09-12T10:32:49;21.13;;;17.90;;
24357;SDS011;13668;52.154;5.580;2022-09-12T10:35:20;20.17;;;16.25;;
24357;SDS011;13668;52.154;5.580;2022-09-12T10:40:41;18.95;;;16.95;;
24357;SDS011;13668;52.154;5.580;2022-09-12T10:43:17;17.40;;;15.52;;
24357;SDS011;13668;52.154;5.580;2022-09-12T10:45:49;14.55;;;12.93;;
24357;SDS011;13668;52.154;5.580;2022-09-12T10:50:47;18.20;;;14.15;;
24357;SDS011;13668;52.154;5.580;2022-09-12T10:53:15;13.52;;;11.95;;
24357;SDS011;13668;52.154;5.580;2022-09-12T10:55:49;14.27;;;12.77;;
24357;SDS011;13668;52.154;5.580;2022-09-12T11:00:53;16.40;;;11.75;;
24357;SDS011;13668;52.154;5.580;2022-09-12T11:03:22;14.00;;;11.45;;
24357;SDS011;13668;52.154;5.580;2022-09-12T11:11:24;13.00;;;10.32;;
24357;SDS011;13668;52.154;5.580;2022-09-12T11:14:15;12.18;;;10.93;;
24357;SDS011;13668;52.154;5.580;2022-09-12T11:17:10;11.63;;;9.88;;
24357;SDS011;13668;52.154;5.580;2022-09-12T11:25:04;11.63;;;10.07;;
24357;SDS011;13668;52.154;5.580;2022-09-12T11:30:10;9.60;;;8.68;;
24357;SDS011;13668;52.154;5.580;2022-09-12T11:37:58;10.55;;;9.48;;
24357;SDS011;13668;52.154;5.580;2022-09-12T11:42:57;8.43;;;7.63;;
24357;SDS011;13668;52.154;5.580;2022-09-12T11:45:27;8.65;;;7.00;;
24357;SDS011;13668;52.154;5.580;2022-09-12T11:47:54;8.88;;;7.95;;
24357;SDS011;13668;52.154;5.580;2022-09-12T11:50:26;9.93;;;8.77;;
24357;SDS011;13668;52.154;5.580;2022-09-12T11:52:54;8.38;;;7.55;;
24357;SDS011;13668;52.154;5.580;2022-09-12T11:55:21;6.80;;;6.07;;
24357;SDS011;13668;52.154;5.580;2022-09-12T11:57:59;7.22;;;6.40;;
24357;SDS011;13668;52.154;5.580;2022-09-12T12:05:44;5.45;;;4.95;;
24357;SDS011;13668;52.154;5.580;2022-09-12T12:08:16;6.22;;;5.68;;
24357;SDS011;13668;52.154;5.580;2022-09-12T12:11:04;6.38;;;5.78;;
24357;SDS011;13668;52.154;5.580;2022-09-12T12:13:36;5.45;;;4.95;;
24357;SDS011;13668;52.154;5.580;2022-09-12T12:16:07;5.57;;;4.72;;
24357;SDS011;13668;52.154;5.580;2022-09-12T12:18:37;4.97;;;4.32;;
24357;SDS011;13668;52.154;5.580;2022-09-12T12:21:20;4.22;;;3.75;;
24357;SDS011;13668;52.154;5.580;2022-09-12T12:29:01;4.05;;;3.65;;
24357;SDS011;13668;52.154;5.580;2022-09-12T12:31:27;4.90;;;4.40;;
24357;SDS011;13668;52.154;5.580;2022-09-12T12:33:53;5.65;;;5.10;;
24357;SDS011;13668;52.154;5.580;2022-09-12T12:36:30;6.22;;;5.63;;
24357;SDS011;13668;52.154;5.580;2022-09-12T12:38:57;7.28;;;6.55;;
24357;SDS011;13668;52.154;5.580;2022-09-12T12:43:50;5.80;;;5.30;;
24357;SDS011;13668;52.154;5.580;2022-09-12T12:46:20;6.55;;;5.88;;
24357;SDS011;13668;52.154;5.580;2022-09-12T12:53:59;7.22;;;5.50;;
24357;SDS011;13668;52.154;5.580;2022-09-12T12:56:29;6.45;;;5.85;;
24357;SDS011;13668;52.154;5.580;2022-09-12T12:58:58;4.97;;;4.47;;
24357;SDS011;13668;52.154;5.580;2022-09-12T13:01:25;6.22;;;5.63;;
24357;SDS011;13668;52.154;5.580;2022-09-12T13:06:28;6.88;;;6.15;;
24357;SDS011;13668;52.154;5.580;2022-09-12T13:09:00;6.20;;;5.70;;
24357;SDS011;13668;52.154;5.580;2022-09-12T13:11:31;7.38;;;6.57;;
24357;SDS011;13668;52.154;5.580;2022-09-12T13:14:00;5.22;;;4.72;;
24357;SDS011;13668;52.154;5.580;2022-09-12T13:18:55;5.65;;;5.18;;
24357;SDS011;13668;52.154;5.580;2022-09-12T13:21:21;5.95;;;5.45;;
24357;SDS011;13668;52.154;5.580;2022-09-12T13:26:33;6.55;;;5.57;;
24357;SDS011;13668;52.154;5.580;2022-09-12T13:29:21;7.00;;;6.30;;
24357;SDS011;13668;52.154;5.580;2022-09-12T13:34:16;7.10;;;6.45;;
24357;SDS011;13668;52.154;5.580;2022-09-12T13:36:53;5.28;;;4.72;;
24357;SDS011;13668;52.154;5.580;2022-09-12T13:44:23;4.78;;;4.38;;
24357;SDS011;13668;52.154;5.580;2022-09-12T13:46:50;4.50;;;4.18;;
24357;SDS011;13668;52.154;5.580;2022-09-12T13:51:58;4.53;;;3.70;;
24357;SDS011;13668;52.154;5.580;2022-09-12T13:54:24;3.80;;;3.50;;
24357;SDS011;13668;52.154;5.580;2022-09-12T13:56:51;3.88;;;3.58;;
24357;SDS011;13668;52.154;5.580;2022-09-12T13:59:17;4.57;;;4.13;;
24357;SDS011;13668;52.154;5.580;2022-09-12T14:01:44;4.03;;;3.70;;
24357;SDS011;13668;52.154;5.580;2022-09-12T14:06:58;4.38;;;3.97;;
24357;SDS011;13668;52.154;5.580;2022-09-12T14:09:26;4.32;;;3.92;;
24357;SDS011;13668;52.154;5.580;2022-09-12T14:11:53;3.65;;;3.33;;
24357;SDS011;13668;52.154;5.580;2022-09-12T14:14:35;4.10;;;3.67;;
24357;SDS011;13668;52.154;5.580;2022-09-12T14:17:24;5.97;;;4.63;;
24357;SDS011;13668;52.154;5.580;2022-09-12T14:19:53;3.42;;;3.15;;
24357;SDS011;13668;52.154;5.580;2022-09-12T14:22:23;3.65;;;3.38;;
24357;SDS011;13668;52.154;5.580;2022-09-12T14:24:50;3.97;;;3.45;;
24357;SDS011;13668;52.154;5.580;2022-09-12T14:27:16;4.57;;;4.13;;
24357;SDS011;13668;52.154;5.580;2022-09-12T14:29:43;5.75;;;3.97;;
24357;SDS011;13668;52.154;5.580;2022-09-12T14:32:16;5.88;;;3.40;;
24357;SDS011;13668;52.154;5.580;2022-09-12T14:35:02;3.95;;;3.50;;
24357;SDS011;13668;52.154;5.580;2022-09-12T14:37:28;3.58;;;3.08;;
24357;SDS011;13668;52.154;5.580;2022-09-12T14:39:54;3.28;;;2.72;;
24357;SDS011;13668;52.154;5.580;2022-09-12T14:42:21;4.10;;;3.67;;
24357;SDS011;13668;52.154;5.580;2022-09-12T14:44:55;4.30;;;3.78;;
24357;SDS011;13668;52.154;5.580;2022-09-12T14:47:22;5.00;;;3.85;;
24357;SDS011;13668;52.154;5.580;2022-09-12T14:49:49;3.40;;;3.10;;
24357;SDS011;13668;52.154;5.580;2022-09-12T14:52:28;2.88;;;2.67;;
24357;SDS011;13668;52.154;5.580;2022-09-12T14:54:57;3.35;;;2.67;;
24357;SDS011;13668;52.154;5.580;2022-09-12T14:59:52;2.75;;;2.13;;
24357;SDS011;13668;52.154;5.580;2022-09-12T15:02:29;2.78;;;2.63;;
24357;SDS011;13668;52.154;5.580;2022-09-12T15:07:43;2.55;;;2.35;;
24357;SDS011;13668;52.154;5.580;2022-09-12T15:10:17;3.15;;;2.92;;
24357;SDS011;13668;52.154;5.580;2022-09-12T15:13:09;3.45;;;3.17;;
24357;SDS011;13668;52.154;5.580;2022-09-12T15:15:38;3.83;;;2.92;;
24357;SDS011;13668;52.154;5.580;2022-09-12T15:18:05;3.20;;;2.92;;
24357;SDS011;13668;52.154;5.580;2022-09-12T15:20:31;3.30;;;3.08;;
24357;SDS011;13668;52.154;5.580;2022-09-12T15:22:57;4.55;;;3.00;;
24357;SDS011;13668;52.154;5.580;2022-09-12T15:25:23;5.65;;;2.78;;
24357;SDS011;13668;52.154;5.580;2022-09-12T15:27:50;3.38;;;3.08;;
24357;SDS011;13668;52.154;5.580;2022-09-12T15:30:17;4.05;;;3.47;;
24357;SDS011;13668;52.154;5.580;2022-09-12T15:32:43;4.05;;;3.65;;
24357;SDS011;13668;52.154;5.580;2022-09-12T15:37:35;4.85;;;3.95;;
24357;SDS011;13668;52.154;5.580;2022-09-12T15:40:01;3.88;;;2.80;;
24357;SDS011;13668;52.154;5.580;2022-09-12T15:42:28;4.53;;;3.40;;
24357;SDS011;13668;52.154;5.580;2022-09-12T15:44:55;4.35;;;3.92;;
24357;SDS011;13668;52.154;5.580;2022-09-12T15:47:21;3.92;;;3.63;;
24357;SDS011;13668;52.154;5.580;2022-09-12T15:49:47;4.13;;;3.83;;
24357;SDS011;13668;52.154;5.580;2022-09-12T15:52:14;7.63;;;4.38;;
24357;SDS011;13668;52.154;5.580;2022-09-12T15:54:40;4.60;;;3.83;;
24357;SDS011;13668;52.154;5.580;2022-09-12T15:57:06;5.00;;;3.90;;
24357;SDS011;13668;52.154;5.580;2022-09-12T15:59:32;5.93;;;4.18;;
24357;SDS011;13668;52.154;5.580;2022-09-12T16:01:58;3.83;;;2.90;;
24357;SDS011;13668;52.154;5.580;2022-09-12T16:04:27;4.10;;;3.67;;
24357;SDS011;13668;52.154;5.580;2022-09-12T16:06:54;4.60;;;3.97;;
24357;SDS011;13668;52.154;5.580;2022-09-12T16:09:21;4.53;;;4.13;;
24357;SDS011;13668;52.154;5.580;2022-09-12T16:11:47;3.67;;;3.38;;
24357;SDS011;13668;52.154;5.580;2022-09-12T16:14:13;5.60;;;3.40;;
24357;SDS011;13668;52.154;5.580;2022-09-12T16:16:40;4.13;;;3.70;;
24357;SDS011;13668;52.154;5.580;2022-09-12T16:19:06;5.05;;;4.65;;
24357;SDS011;13668;52.154;5.580;2022-09-12T16:21:33;4.03;;;3.55;;
24357;SDS011;13668;52.154;5.580;2022-09-12T16:23:59;3.95;;;3.55;;
24357;SDS011;13668;52.154;5.580;2022-09-12T16:26:26;3.88;;;3.47;;
24357;SDS011;13668;52.154;5.580;2022-09-12T16:28:58;5.93;;;3.90;;
24357;SDS011;13668;52.154;5.580;2022-09-12T16:31:25;5.15;;;4.00;;
24357;SDS011;13668;52.154;5.580;2022-09-12T16:33:51;4.85;;;3.75;;
24357;SDS011;13668;52.154;5.580;2022-09-12T16:36:18;5.60;;;4.00;;
24357;SDS011;13668;52.154;5.580;2022-09-12T16:38:48;3.45;;;3.10;;
24357;SDS011;13668;52.154;5.580;2022-09-12T16:41:15;4.78;;;3.97;;
24357;SDS011;13668;52.154;5.580;2022-09-12T16:43:42;4.05;;;3.35;;
24357;SDS011;13668;52.154;5.580;2022-09-12T16:46:09;4.18;;;3.72;;
24357;SDS011;13668;52.154;5.580;2022-09-12T16:48:35;3.45;;;3.08;;
24357;SDS011;13668;52.154;5.580;2022-09-12T16:51:03;4.57;;;3.55;;
24357;SDS011;13668;52.154;5.580;2022-09-12T16:53:29;4.78;;;3.65;;
24357;SDS011;13668;52.154;5.580;2022-09-12T16:55:55;4.03;;;3.30;;
24357;SDS011;13668;52.154;5.580;2022-09-12T16:58:21;3.90;;;3.53;;
24357;SDS011;13668;52.154;5.580;2022-09-12T17:00:47;4.50;;;4.10;;
24357;SDS011;13668;52.154;5.580;2022-09-12T17:03:14;5.22;;;4.20;;